createdAt,value
2023-03-15T00:01:48.579Z,75274.72
2023-03-15T00:04:15.837Z,75274.72
2023-03-15T00:06:42.407Z,75278.78
2023-03-15T00:09:08.926Z,75278.78
2023-03-15T00:11:35.529Z,75294.97
2023-03-15T00:14:02.606Z,75286.88
2023-03-15T00:16:29.297Z,75303.06
2023-03-15T00:18:56.304Z,75311.16
2023-03-15T00:21:22.948Z,75303.06
2023-03-15T00:23:49.442Z,75323.31
2023-03-15T00:26:16.497Z,75345.56
2023-03-15T00:28:43.382Z,75365.81
2023-03-15T00:31:18.958Z,75367.84
2023-03-15T00:33:46.013Z,75363.78
2023-03-15T00:36:12.776Z,75396.16
2023-03-15T00:38:40.873Z,75438.66
2023-03-15T00:41:09.293Z,75558.06
2023-03-15T00:43:35.901Z,75659.28
2023-03-15T00:46:03.293Z,75715.94
2023-03-15T00:48:30.062Z,75746.31
2023-03-15T00:51:11.501Z,75827.28
2023-03-15T00:53:40.306Z,75869.78
2023-03-15T00:56:08.657Z,75942.66
2023-03-15T00:58:35.252Z,75975.03
2023-03-15T01:01:12.412Z,76009.44
2023-03-15T01:03:40.837Z,76078.25
2023-03-15T01:06:19.264Z,76108.63
2023-03-15T01:08:45.890Z,76141.00
2023-03-15T01:11:15.091Z,76177.44
2023-03-15T01:13:42.080Z,76205.78
2023-03-15T01:16:10.066Z,76238.19
2023-03-15T01:18:37.955Z,76250.31
2023-03-15T01:21:11.432Z,76276.63
2023-03-15T01:23:38.648Z,76311.06
2023-03-15T01:26:07.811Z,76321.19
2023-03-15T01:28:34.440Z,76319.16
2023-03-15T01:31:01.147Z,76337.38
2023-03-15T01:33:28.330Z,76351.53
2023-03-15T01:36:03.886Z,76363.69
2023-03-15T01:38:30.795Z,76359.63
2023-03-15T01:40:57.904Z,76379.88
2023-03-15T01:43:26.205Z,76385.97
2023-03-15T01:46:01.651Z,76398.09
2023-03-15T01:48:51.119Z,76404.19
2023-03-15T01:51:32.667Z,76412.28
2023-03-15T01:54:09.903Z,76424.41
2023-03-15T01:56:39.152Z,76432.53
2023-03-15T01:59:09.656Z,76444.66
2023-03-15T02:01:37.455Z,76468.97
2023-03-15T02:04:08.246Z,76466.94
2023-03-15T02:06:35.362Z,76460.84
2023-03-15T02:09:09.475Z,76475.03
2023-03-15T02:11:36.753Z,76473.00
2023-03-15T02:14:05.182Z,76505.41
2023-03-15T02:16:31.734Z,76501.34
2023-03-15T02:18:58.626Z,76499.31
2023-03-15T02:21:30.936Z,76497.28
2023-03-15T02:24:26.044Z,76513.50
2023-03-15T02:26:55.302Z,76513.50
2023-03-15T02:29:22.780Z,76515.53
2023-03-15T02:31:49.609Z,76533.75
2023-03-15T02:34:16.309Z,76529.69
2023-03-15T02:36:42.774Z,76537.78
2023-03-15T02:39:17.188Z,76547.91
2023-03-15T02:41:52.854Z,76541.84
2023-03-15T02:44:23.534Z,76547.91
2023-03-15T02:46:51.616Z,76547.91
2023-03-15T02:49:18.974Z,76566.13
2023-03-15T02:51:45.473Z,76566.13
2023-03-15T02:54:11.941Z,76564.09
2023-03-15T02:56:38.385Z,76568.16
2023-03-15T02:59:04.961Z,76549.94
2023-03-15T03:01:31.701Z,76568.16
2023-03-15T03:03:58.289Z,76564.09
2023-03-15T03:06:24.795Z,76570.19
2023-03-15T03:08:51.388Z,76572.19
2023-03-15T03:11:17.886Z,76578.28
2023-03-15T03:13:44.385Z,76590.41
2023-03-15T03:16:11.326Z,76592.44
2023-03-15T03:18:38.186Z,76618.75
2023-03-15T03:21:06.790Z,76610.66
2023-03-15T03:23:34.964Z,76626.88
2023-03-15T03:26:02.313Z,76630.91
2023-03-15T03:28:31.985Z,76618.75
2023-03-15T03:30:59.149Z,76618.75
2023-03-15T03:33:25.717Z,76622.81
2023-03-15T03:35:54.138Z,76639.00
2023-03-15T03:38:20.683Z,76647.09
2023-03-15T03:40:47.157Z,76643.06
2023-03-15T03:43:13.780Z,76634.97
2023-03-15T03:45:40.246Z,76651.16
2023-03-15T03:48:06.771Z,76639.00
2023-03-15T03:50:33.308Z,76651.16
2023-03-15T03:52:59.763Z,76639.00
2023-03-15T03:55:26.217Z,76626.88
2023-03-15T03:57:55.353Z,76643.06
2023-03-15T04:00:21.831Z,76653.19
2023-03-15T04:02:48.447Z,76663.31
2023-03-15T04:05:15.897Z,76667.34
2023-03-15T04:07:42.411Z,76653.19
2023-03-15T04:10:09.440Z,76677.47
2023-03-15T04:12:35.948Z,76691.66
2023-03-15T04:15:03.370Z,76689.63
2023-03-15T04:17:29.816Z,76707.84
2023-03-15T04:19:56.454Z,76707.84
2023-03-15T04:22:22.898Z,76701.78
2023-03-15T04:24:50.668Z,76703.78
2023-03-15T04:27:17.167Z,76699.75
2023-03-15T04:29:43.862Z,76703.78
2023-03-15T04:32:11.465Z,76697.72
2023-03-15T04:34:38.910Z,76713.91
2023-03-15T04:37:06.264Z,76707.84
2023-03-15T04:39:32.785Z,76707.84
2023-03-15T04:41:59.303Z,76703.78
2023-03-15T04:44:26.673Z,76713.91
2023-03-15T04:46:56.275Z,76707.84
2023-03-15T04:49:22.732Z,76713.91
2023-03-15T04:51:49.266Z,76724.03
2023-03-15T04:54:16.277Z,76726.06
2023-03-15T04:56:42.871Z,76722.00
2023-03-15T04:59:11.089Z,76726.06
2023-03-15T05:01:37.774Z,76722.00
2023-03-15T05:04:04.402Z,76724.03
2023-03-15T05:06:30.915Z,76730.13
2023-03-15T05:08:57.360Z,76746.31
2023-03-15T05:11:24.170Z,76748.34
2023-03-15T05:13:50.809Z,76756.44
2023-03-15T05:16:17.554Z,76752.38
2023-03-15T05:18:45.250Z,76744.28
2023-03-15T05:21:13.056Z,76748.34
2023-03-15T05:23:39.657Z,76758.47
2023-03-15T05:26:06.235Z,76768.56
2023-03-15T05:28:32.758Z,76768.56
2023-03-15T05:31:00.642Z,76780.72
2023-03-15T05:33:27.451Z,76764.53
2023-03-15T05:35:56.385Z,76768.56
2023-03-15T05:38:26.725Z,76762.50
2023-03-15T05:40:54.556Z,76766.56
2023-03-15T05:43:21.774Z,76762.50
2023-03-15T05:45:48.866Z,76758.47
2023-03-15T05:48:17.310Z,76778.69
2023-03-15T05:50:43.854Z,76776.69
2023-03-15T05:53:10.629Z,76772.63
2023-03-15T05:55:37.403Z,76786.81
2023-03-15T05:58:04.459Z,76786.81
2023-03-15T06:00:31.211Z,76790.84
2023-03-15T06:02:57.711Z,76805.03
2023-03-15T06:05:24.631Z,76794.91
2023-03-15T06:07:51.247Z,76800.97
2023-03-15T06:10:17.961Z,76805.03
2023-03-15T06:12:44.875Z,76796.91
2023-03-15T06:15:11.784Z,76809.06
2023-03-15T06:17:38.558Z,76800.97
2023-03-15T06:20:05.652Z,76805.03
2023-03-15T06:22:32.347Z,76792.88
2023-03-15T06:24:58.979Z,76817.16
2023-03-15T06:27:25.528Z,76805.03
2023-03-15T06:29:52.314Z,76817.16
2023-03-15T06:32:18.944Z,76809.06
2023-03-15T06:34:45.454Z,76829.31
2023-03-15T06:37:16.309Z,76843.50
2023-03-15T06:39:44.860Z,76847.53
2023-03-15T06:42:13.828Z,76851.59
2023-03-15T06:44:41.337Z,76869.81
2023-03-15T06:47:08.848Z,76853.63
2023-03-15T06:49:35.558Z,76865.75
2023-03-15T06:52:02.782Z,76877.91
2023-03-15T06:54:29.341Z,76886.00
2023-03-15T06:56:55.993Z,76877.91
2023-03-15T06:59:22.704Z,76869.81
2023-03-15T07:01:49.291Z,76881.97
2023-03-15T07:04:18.621Z,76881.97
2023-03-15T07:06:45.216Z,76869.81
2023-03-15T07:09:11.751Z,76861.72
2023-03-15T07:11:38.291Z,76845.50
2023-03-15T07:14:04.769Z,76869.81
2023-03-15T07:16:31.391Z,76869.81
2023-03-15T07:19:00.015Z,76853.63
2023-03-15T07:21:27.395Z,76879.94
2023-03-15T07:23:54.582Z,76900.19
2023-03-15T07:26:21.177Z,76916.38
2023-03-15T07:28:47.663Z,76926.50
2023-03-15T07:31:16.527Z,76918.41
2023-03-15T07:33:43.160Z,76892.09
2023-03-15T07:36:09.860Z,76904.22
2023-03-15T07:38:36.726Z,76906.25
2023-03-15T07:41:05.877Z,76908.28
2023-03-15T07:43:32.869Z,76910.31
2023-03-15T07:45:59.764Z,76932.56
2023-03-15T07:48:26.412Z,76922.44
2023-03-15T07:50:52.931Z,76918.41
2023-03-15T07:53:19.543Z,76904.22
2023-03-15T07:55:48.051Z,76898.16
2023-03-15T07:58:16.986Z,76900.19
2023-03-15T08:00:44.528Z,76902.19
2023-03-15T08:03:11.494Z,76898.16
2023-03-15T08:05:38.394Z,76898.16
2023-03-15T08:08:05.445Z,76894.09
2023-03-15T08:10:32.079Z,76845.50
2023-03-15T08:12:58.660Z,76805.03
2023-03-15T08:15:25.154Z,76833.38
2023-03-15T08:17:51.835Z,76770.59
2023-03-15T08:20:21.618Z,76701.78
2023-03-15T08:22:50.210Z,76720.00
2023-03-15T08:25:20.264Z,76752.38
2023-03-15T08:27:47.083Z,76796.91
2023-03-15T08:30:16.219Z,76821.22
2023-03-15T08:32:45.063Z,76869.81
2023-03-15T08:35:15.540Z,76857.66
2023-03-15T08:37:47.116Z,76873.84
2023-03-15T08:40:25.442Z,76861.72
2023-03-15T08:42:53.186Z,76861.72
2023-03-15T08:45:20.621Z,76847.53
2023-03-15T08:47:47.154Z,76805.03
2023-03-15T08:50:17.599Z,76782.75
2023-03-15T08:52:44.441Z,76764.53
2023-03-15T08:55:16.688Z,76819.19
2023-03-15T08:57:43.222Z,76817.16
2023-03-15T09:00:17.350Z,76829.31
2023-03-15T09:02:44.062Z,76833.38
2023-03-15T09:05:12.207Z,76847.53
2023-03-15T09:07:43.215Z,76845.50
2023-03-15T09:10:13.216Z,76841.47
2023-03-15T09:12:41.030Z,76833.38
2023-03-15T09:15:08.134Z,76865.75
2023-03-15T09:17:34.678Z,76837.41
2023-03-15T09:20:01.213Z,76827.28
2023-03-15T09:22:39.035Z,76873.84
2023-03-15T09:25:07.018Z,76873.84
2023-03-15T09:27:34.001Z,76892.09
2023-03-15T09:30:00.631Z,76944.72
2023-03-15T09:32:27.257Z,76898.16
2023-03-15T09:34:53.797Z,76867.78
2023-03-15T09:37:21.822Z,76853.63
2023-03-15T09:39:48.364Z,76855.63
2023-03-15T09:42:25.466Z,76853.63
2023-03-15T09:45:14.948Z,76841.47
2023-03-15T09:48:01.253Z,76809.06
2023-03-15T09:50:46.998Z,76772.63
2023-03-15T09:53:36.985Z,76695.69
2023-03-15T09:56:03.817Z,76726.06
2023-03-15T09:58:35.487Z,76687.59
2023-03-15T10:01:07.021Z,76667.34
2023-03-15T10:03:50.547Z,76685.56
2023-03-15T10:06:24.372Z,76687.59
2023-03-15T10:08:55.532Z,76685.56
2023-03-15T10:11:46.630Z,76740.22
2023-03-15T10:14:39.355Z,76736.19
2023-03-15T10:17:24.366Z,76744.28
2023-03-15T10:20:01.448Z,76752.38
2023-03-15T10:22:34.438Z,76703.78
2023-03-15T10:25:17.871Z,76715.94
2023-03-15T10:27:54.416Z,76663.31
2023-03-15T10:30:29.655Z,76695.69
2023-03-15T10:33:00.808Z,76734.16
2023-03-15T10:35:27.556Z,76748.34
2023-03-15T10:37:54.776Z,76772.63
2023-03-15T10:40:45.059Z,76748.34
2023-03-15T10:43:30.247Z,76748.34
2023-03-15T10:46:13.627Z,76740.22
2023-03-15T10:49:20.719Z,76748.34
2023-03-15T10:51:48.817Z,76744.28
2023-03-15T10:54:18.150Z,76740.22
2023-03-15T10:56:51.083Z,76758.47
2023-03-15T10:59:24.207Z,76744.28
2023-03-15T11:02:08.200Z,76736.19
2023-03-15T11:04:34.983Z,76736.19
2023-03-15T11:07:03.429Z,76715.94
2023-03-15T11:09:45.675Z,76713.91
2023-03-15T11:12:24.788Z,76732.13
2023-03-15T11:14:56.688Z,76736.19
2023-03-15T11:17:26.489Z,76699.75
2023-03-15T11:20:13.352Z,76675.44
2023-03-15T11:22:40.500Z,76628.88
2023-03-15T11:25:15.991Z,76606.63
2023-03-15T11:27:43.558Z,76626.88
2023-03-15T11:30:15.781Z,76675.44
2023-03-15T11:32:43.876Z,76703.78
2023-03-15T11:35:16.926Z,76689.63
2023-03-15T11:37:55.184Z,76715.94
2023-03-15T11:40:33.863Z,76655.22
2023-03-15T11:43:08.357Z,76655.22
2023-03-15T11:45:46.983Z,76655.22
2023-03-15T11:48:18.447Z,76665.31
2023-03-15T11:50:45.362Z,76663.31
2023-03-15T11:53:16.801Z,76665.31
2023-03-15T11:55:49.331Z,76663.31
2023-03-15T11:58:30.192Z,76683.56
2023-03-15T12:01:10.793Z,76691.66
2023-03-15T12:03:42.486Z,76726.06
2023-03-15T12:06:13.550Z,76720.00
2023-03-15T12:08:53.765Z,76703.78
2023-03-15T12:11:20.606Z,76711.91
2023-03-15T12:13:59.375Z,76705.81
2023-03-15T12:16:28.501Z,76679.50
2023-03-15T12:18:59.207Z,76671.41
2023-03-15T12:21:34.488Z,76685.56
2023-03-15T12:24:15.218Z,76703.78
2023-03-15T12:26:44.365Z,76691.66
2023-03-15T12:29:33.644Z,76691.66
2023-03-15T12:32:09.044Z,76705.81
2023-03-15T12:34:37.727Z,76693.66
2023-03-15T12:37:16.495Z,76711.91
2023-03-15T12:39:46.281Z,76715.94
2023-03-15T12:42:32.956Z,76705.81
2023-03-15T12:45:17.853Z,76705.81
2023-03-15T12:47:50.251Z,76683.56
2023-03-15T12:50:39.541Z,76667.34
2023-03-15T12:53:16.832Z,76695.69
2023-03-15T12:55:43.703Z,76663.31
2023-03-15T12:58:12.144Z,76675.44
2023-03-15T13:00:41.191Z,76709.88
2023-03-15T13:03:12.199Z,76722.00
2023-03-15T13:06:03.765Z,76732.13
2023-03-15T13:08:58.369Z,76711.91
2023-03-15T13:11:37.221Z,76740.22
2023-03-15T13:14:12.710Z,76748.34
2023-03-15T13:16:47.258Z,76772.63
2023-03-15T13:19:14.849Z,76776.69
2023-03-15T13:22:00.261Z,76756.44
2023-03-15T13:25:00.262Z,76772.63
2023-03-15T13:27:35.768Z,76756.44
2023-03-15T13:30:25.146Z,76758.47
2023-03-15T13:33:27.476Z,76750.34
2023-03-15T13:36:06.795Z,76748.34
2023-03-15T13:38:34.703Z,76752.38
2023-03-15T13:41:03.723Z,76764.53
2023-03-15T13:43:39.724Z,76758.47
2023-03-15T13:46:06.498Z,76788.81
2023-03-15T13:48:35.678Z,76778.69
2023-03-15T13:51:11.382Z,76752.38
2023-03-15T13:53:49.548Z,76752.38
2023-03-15T13:56:20.824Z,76746.31
2023-03-15T13:58:48.575Z,76766.56
2023-03-15T14:01:16.664Z,76762.50
2023-03-15T14:03:44.024Z,76764.53
2023-03-15T14:06:21.907Z,76760.47
2023-03-15T14:08:49.686Z,76782.75
2023-03-15T14:11:30.856Z,76768.56
2023-03-15T14:14:00.070Z,76805.03
2023-03-15T14:17:02.994Z,76813.13
2023-03-15T14:19:33.081Z,76841.47
2023-03-15T14:22:01.324Z,76865.75
2023-03-15T14:24:35.741Z,76869.81
2023-03-15T14:27:06.314Z,76873.84
2023-03-15T14:29:34.986Z,76877.91
2023-03-15T14:32:05.494Z,76902.19
2023-03-15T14:34:37.265Z,76914.34
2023-03-15T14:37:09.887Z,76904.22
2023-03-15T14:39:41.634Z,76896.13
2023-03-15T14:42:12.073Z,76922.44
2023-03-15T14:44:38.675Z,76916.38
2023-03-15T14:47:16.589Z,76950.78
2023-03-15T14:49:43.209Z,76940.66
2023-03-15T14:52:12.676Z,76934.59
2023-03-15T14:54:42.731Z,76920.41
2023-03-15T14:57:09.380Z,76934.59
2023-03-15T14:59:36.121Z,76906.25
2023-03-15T15:02:03.283Z,76894.09
2023-03-15T15:04:33.601Z,76886.00
2023-03-15T15:07:03.133Z,76898.16
2023-03-15T15:09:31.012Z,76896.13
2023-03-15T15:11:57.619Z,76916.38
2023-03-15T15:14:24.228Z,76920.41
2023-03-15T15:16:51.855Z,76930.53
2023-03-15T15:19:18.455Z,76973.06
2023-03-15T15:21:44.995Z,76973.06
2023-03-15T15:24:15.399Z,76975.09
2023-03-15T15:26:42.194Z,76987.25
2023-03-15T15:29:14.093Z,76973.06
2023-03-15T15:31:41.615Z,76958.88
2023-03-15T15:34:09.358Z,76960.91
2023-03-15T15:36:39.124Z,77005.47
2023-03-15T15:39:27.562Z,77039.88
2023-03-15T15:41:54.311Z,77056.06
2023-03-15T15:44:22.747Z,77047.97
2023-03-15T15:46:49.868Z,77041.91
2023-03-15T15:49:16.828Z,77056.06
2023-03-15T15:51:49.474Z,77050.00
2023-03-15T15:54:20.490Z,77052.03
2023-03-15T15:56:52.579Z,77072.28
2023-03-15T15:59:19.529Z,77076.31
2023-03-15T16:01:59.596Z,77104.66
2023-03-15T16:04:27.035Z,77116.81
2023-03-15T16:07:01.744Z,77124.91
2023-03-15T16:09:30.470Z,77145.16
2023-03-15T16:11:57.211Z,77137.06
2023-03-15T16:14:23.787Z,77139.09
2023-03-15T16:16:50.842Z,77145.16
2023-03-15T16:19:17.454Z,77145.16
2023-03-15T16:21:47.614Z,77145.16
2023-03-15T16:24:26.414Z,77157.31
2023-03-15T16:27:00.987Z,77153.25
2023-03-15T16:29:43.308Z,77153.25
2023-03-15T16:32:19.354Z,77147.19
2023-03-15T16:34:52.344Z,77177.56
2023-03-15T16:37:26.551Z,77181.59
2023-03-15T16:39:55.774Z,77171.47
2023-03-15T16:42:24.425Z,77173.50
2023-03-15T16:44:52.060Z,77181.59
2023-03-15T16:47:19.184Z,77191.72
2023-03-15T16:49:45.792Z,77203.88
2023-03-15T16:52:13.902Z,77195.78
2023-03-15T16:54:41.802Z,77214.00
2023-03-15T16:57:21.854Z,77222.09
2023-03-15T16:59:48.855Z,77222.09
2023-03-15T17:02:26.173Z,77222.09
2023-03-15T17:04:53.073Z,77226.16
2023-03-15T17:07:31.615Z,77240.31
2023-03-15T17:09:58.306Z,77254.50
2023-03-15T17:12:28.514Z,77266.66
2023-03-15T17:14:56.973Z,77262.59
2023-03-15T17:17:27.050Z,77268.69
2023-03-15T17:19:54.110Z,77274.75
2023-03-15T17:22:21.343Z,77274.75
2023-03-15T17:24:48.501Z,77284.88
2023-03-15T17:27:25.725Z,77286.91
2023-03-15T17:29:52.296Z,77297.03
2023-03-15T17:32:18.855Z,77299.03
2023-03-15T17:34:47.446Z,77305.13
2023-03-15T17:37:18.429Z,77331.44
2023-03-15T17:39:45.253Z,77345.63
2023-03-15T17:42:16.132Z,77365.88
2023-03-15T17:44:42.657Z,77394.22
2023-03-15T17:47:12.443Z,77402.31
2023-03-15T17:49:39.520Z,77412.44
2023-03-15T17:52:13.224Z,77416.50
2023-03-15T17:54:39.912Z,77408.38
2023-03-15T17:57:06.914Z,77398.25
2023-03-15T17:59:33.407Z,77412.44
2023-03-15T18:01:59.966Z,77432.69
2023-03-15T18:04:26.691Z,77422.56
2023-03-15T18:06:53.975Z,77426.63
2023-03-15T18:09:22.235Z,77428.63
2023-03-15T18:11:48.862Z,77436.75
2023-03-15T18:14:16.627Z,77440.78
2023-03-15T18:16:43.830Z,77444.84
2023-03-15T18:19:10.631Z,77452.94
2023-03-15T18:21:37.496Z,77465.09
2023-03-15T18:24:04.108Z,77457.00
2023-03-15T18:26:30.721Z,77457.00
2023-03-15T18:28:57.212Z,77477.25
2023-03-15T18:31:25.282Z,77477.25
2023-03-15T18:33:52.446Z,77477.25
2023-03-15T18:36:19.441Z,77493.44
2023-03-15T18:38:46.222Z,77507.59
2023-03-15T18:41:20.827Z,77529.88
2023-03-15T18:43:49.956Z,77540.00
2023-03-15T18:46:18.468Z,77550.13
2023-03-15T18:48:46.071Z,77566.34
2023-03-15T18:51:13.919Z,77546.09
2023-03-15T18:53:42.491Z,77542.03
2023-03-15T18:56:16.279Z,77566.34
2023-03-15T18:58:42.773Z,77558.22
2023-03-15T19:01:09.339Z,77556.22
2023-03-15T19:03:35.858Z,77548.09
2023-03-15T19:06:06.902Z,77542.03
2023-03-15T19:08:34.173Z,77550.13
2023-03-15T19:11:02.075Z,77546.09
2023-03-15T19:13:28.695Z,77572.41
2023-03-15T19:15:55.869Z,77596.72
2023-03-15T19:18:23.116Z,77614.94
2023-03-15T19:20:51.577Z,77618.97
2023-03-15T19:23:18.525Z,77608.84
2023-03-15T19:25:45.784Z,77618.97
2023-03-15T19:28:12.551Z,77618.97
2023-03-15T19:30:39.179Z,77606.84
2023-03-15T19:33:05.795Z,77618.97
2023-03-15T19:35:33.670Z,77641.25
2023-03-15T19:38:00.531Z,77627.09
2023-03-15T19:40:27.116Z,77631.13
2023-03-15T19:42:53.725Z,77631.13
2023-03-15T19:45:20.538Z,77635.19
2023-03-15T19:47:47.170Z,77655.44
2023-03-15T19:50:14.879Z,77649.34
2023-03-15T19:52:45.790Z,77657.47
2023-03-15T19:55:13.906Z,77655.44
2023-03-15T19:57:40.533Z,77659.47
2023-03-15T20:00:12.530Z,77657.47
2023-03-15T20:02:42.956Z,77659.47
2023-03-15T20:05:16.001Z,77667.59
2023-03-15T20:07:43.067Z,77677.72
2023-03-15T20:10:11.097Z,77663.53
2023-03-15T20:12:38.963Z,77681.75
2023-03-15T20:15:06.836Z,77683.78
2023-03-15T20:17:33.315Z,77683.78
2023-03-15T20:19:59.772Z,77687.84
2023-03-15T20:22:26.250Z,77687.84
2023-03-15T20:24:52.707Z,77704.03
2023-03-15T20:27:19.560Z,77687.84
2023-03-15T20:29:46.065Z,77667.59
2023-03-15T20:32:12.554Z,77689.84
2023-03-15T20:34:41.426Z,77706.06
2023-03-15T20:37:08.026Z,77712.13
2023-03-15T20:39:34.654Z,77730.34
2023-03-15T20:42:01.116Z,77728.34
2023-03-15T20:44:27.652Z,77724.28
2023-03-15T20:46:58.796Z,77722.25
2023-03-15T20:49:27.005Z,77722.25
2023-03-15T20:51:55.366Z,77706.06
2023-03-15T20:54:21.812Z,77724.28
2023-03-15T20:56:48.289Z,77720.22
2023-03-15T20:59:15.297Z,77722.25
2023-03-15T21:01:41.945Z,77706.06
2023-03-15T21:04:08.429Z,77720.22
2023-03-15T21:06:35.084Z,77704.03
2023-03-15T21:09:01.600Z,77695.94
2023-03-15T21:11:28.105Z,77699.97
2023-03-15T21:13:54.664Z,77695.94
2023-03-15T21:16:24.981Z,77693.91
2023-03-15T21:18:53.127Z,77702.00
2023-03-15T21:21:19.879Z,77726.31
2023-03-15T21:23:46.470Z,77720.22
2023-03-15T21:26:13.597Z,77726.31
2023-03-15T21:28:41.111Z,77728.34
2023-03-15T21:31:08.069Z,77716.19
2023-03-15T21:33:35.319Z,77730.34
2023-03-15T21:36:02.452Z,77738.47
2023-03-15T21:38:31.476Z,77738.47
2023-03-15T21:40:59.420Z,77740.47
2023-03-15T21:43:31.835Z,77738.47
2023-03-15T21:46:02.622Z,77748.59
2023-03-15T21:48:29.444Z,77740.47
2023-03-15T21:50:56.358Z,77742.50
2023-03-15T21:53:23.181Z,77738.47
2023-03-15T21:55:49.888Z,77726.31
2023-03-15T21:58:16.573Z,77712.13
2023-03-15T22:00:43.273Z,77714.16
2023-03-15T22:03:09.766Z,77708.09
2023-03-15T22:05:36.606Z,77712.13
2023-03-15T22:08:03.361Z,77708.09
2023-03-15T22:10:29.874Z,77712.13
2023-03-15T22:12:56.417Z,77734.41
2023-03-15T22:15:23.098Z,77732.38
2023-03-15T22:17:50.378Z,77752.63
2023-03-15T22:20:17.328Z,77780.97
2023-03-15T22:22:45.352Z,77774.91
2023-03-15T22:25:12.772Z,77789.09
2023-03-15T22:27:39.759Z,77807.31
2023-03-15T22:30:09.542Z,77809.34
2023-03-15T22:32:36.125Z,77793.13
2023-03-15T22:35:02.598Z,77813.38
2023-03-15T22:37:29.089Z,77797.19
2023-03-15T22:39:55.531Z,77803.25
2023-03-15T22:42:22.071Z,77813.38
2023-03-15T22:44:48.580Z,77809.34
2023-03-15T22:47:15.553Z,77819.47
2023-03-15T22:49:42.080Z,77813.38
2023-03-15T22:52:08.675Z,77833.63
2023-03-15T22:54:35.300Z,77839.72
2023-03-15T22:57:01.927Z,77847.81
2023-03-15T22:59:29.119Z,77841.75
2023-03-15T23:01:56.689Z,77870.09
2023-03-15T23:04:23.977Z,77870.09
2023-03-15T23:06:51.640Z,77880.22
2023-03-15T23:09:18.147Z,77880.22
2023-03-15T23:11:44.859Z,77874.13
2023-03-15T23:14:11.485Z,77866.03
2023-03-15T23:16:37.979Z,77892.38
